Overview Statistics Trail Chart Weather Telemetry Raw packets
 

This is the latest recevied packets stored in our database for station/object I3YBD-20. If no packets are shown the sender has not sent any packets the latest 24 hours.

If you compare the raw packets with similar data from other websites it may differ (especially the path), the reason is that we are not collecting packets from the same APRS-IS servers. Each APRS-IS server performes duplicate filtering, and which packet that is considered to be a duplicate may differ depending on which APRS-IS server you receive your data from.

<< 1 2 3 4 >>

1777924913: I3YBD-20>APRSMC,TCPIP*,qAR,IR3ZWR-20:T#536,910.7,18.8,0.0,969.7,0.0,00000000

1777924913: I3YBD-20>APRSMC,TCPIP*,qAR,IR3ZWR-20:!4533.60N/01054.46E&Meshcom 433 Mhz#I3YBD/B=100/A=003100

1777923175: I3YBD-20>APRSMC,TCPIP*,qAR,IU4KVZ-10:T#342,910.6,19.4,0.0,969.5,0.0,00000000

1777923175: I3YBD-20>APRSMC,TCPIP*,qAR,IU4KVZ-10:!4533.60N/01054.46E&Meshcom 433 Mhz#I3YBD/B=100/A=003100

1777923073: I3YBD-20>APRSMC,TCPIP*,qAR,IR3ZWR-20:T#535,910.6,19.4,0.0,969.5,0.0,00000000

1777923073: I3YBD-20>APRSMC,TCPIP*,qAR,IR3ZWR-20:!4533.60N/01054.46E&Meshcom 433 Mhz#I3YBD/B=100/A=003100

1777921255: I3YBD-20>APRSMC,TCPIP*,qAR,IR4UBS-15:T#534,910.5,19.8,0.0,969.4,0.0,00000000

1777921255: I3YBD-20>APRSMC,TCPIP*,qAR,IR4UBS-15:!4533.60N/01054.46E&Meshcom 433 Mhz#I3YBD/B=100/A=003100

1777919435: I3YBD-20>APRSMC,TCPIP*,qAR,IR4UBS-15:T#533,910.4,20.3,0.0,969.1,0.0,00000000

1777919435: I3YBD-20>APRSMC,TCPIP*,qAR,IR4UBS-15:!4533.60N/01054.46E&Meshcom 433 Mhz#I3YBD/B=100/A=003100

1777917697: I3YBD-20>APRSMC,TCPIP*,qAR,IZ2BKS-15:T#532,910.6,21.0,0.0,969.2,0.0,00000000

1777917697: I3YBD-20>APRSMC,TCPIP*,qAR,IZ2BKS-15:!4533.60N/01054.46E&Meshcom 433 Mhz#I3YBD/B=100/A=003100

1777915818: I3YBD-20>APRSMC,TCPIP*,qAR,IR4UBS-15:T#531,910.4,21.6,0.0,968.9,0.0,00000000

1777915818: I3YBD-20>APRSMC,TCPIP*,qAR,IR4UBS-15::I3YBD-20 :UNIT.hPa,C deg,%,hPa,C deg,Y/N,O/N,O/N,O/N,O/N,O/N,O/N,O/N

1777915818: I3YBD-20>APRSMC,TCPIP*,qAR,IR4UBS-15::I3YBD-20 :EQNS.0,1,0,0,1,0,0,1,0,0,1,0,0,1,0

1777915818: I3YBD-20>APRSMC,TCPIP*,qAR,IR4UBS-15::I3YBD-20 :PARM.Press,Temp.in,Hum,QNH,Temp.out,track,-,-,-,-,-,-,-

1777915818: I3YBD-20>APRSMC,TCPIP*,qAR,IR4UBS-15:!4533.60N/01054.46E&Meshcom 433 Mhz#I3YBD/B=100/A=003100

1777912205: I3YBD-20>APRSMC,TCPIP*,qAR,IR4UBS-15:T#530,910.6,22.9,0.0,968.8,0.0,00000000

1777912205: I3YBD-20>APRSMC,TCPIP*,qAR,IR4UBS-15:!4533.60N/01054.46E&Meshcom 433 Mhz#I3YBD/B=100/A=003100

1777908552: I3YBD-20>APRSMC,TCPIP*,qAR,IR4UBS-15:T#529,910.7,23.9,0.0,968.8,0.0,00000000

1777908552: I3YBD-20>APRSMC,TCPIP*,qAR,IR4UBS-15:!4533.60N/01054.46E&Meshcom 433 Mhz#I3YBD/B=100/A=003100

1777906737: I3YBD-20>APRSMC,TCPIP*,qAR,IR4UBS-15:T#528,910.8,24.0,0.0,968.8,0.0,00000000

1777906737: I3YBD-20>APRSMC,TCPIP*,qAR,IR4UBS-15:!4533.60N/01054.46E&Meshcom 433 Mhz#I3YBD/B=100/A=003100

1777904922: I3YBD-20>APRSMC,TCPIP*,qAR,IZ2BKS-15:T#527,910.9,24.2,0.0,968.9,0.0,00000000

1777904922: I3YBD-20>APRSMC,TCPIP*,qAR,IZ2BKS-15:!4533.60N/01054.46E&Meshcom 433 Mhz#I3YBD/B=100/A=003100